sensor_id;sensor_type;location;lat;lon;timestamp;P1;durP1;ratioP1;P2;durP2;ratioP2
49340;SDS011;35209;51.050;13.678;2024-02-28T00:01:49;33.78;;;17.63;;
49340;SDS011;35209;51.050;13.678;2024-02-28T00:06:51;39.03;;;19.08;;
49340;SDS011;35209;51.050;13.678;2024-02-28T00:11:53;35.28;;;19.50;;
49340;SDS011;35209;51.050;13.678;2024-02-28T00:16:55;37.78;;;19.08;;
49340;SDS011;35209;51.050;13.678;2024-02-28T00:21:57;32.38;;;17.58;;
49340;SDS011;35209;51.050;13.678;2024-02-28T00:27:01;37.03;;;19.33;;
49340;SDS011;35209;51.050;13.678;2024-02-28T00:32:03;37.38;;;19.15;;
49340;SDS011;35209;51.050;13.678;2024-02-28T00:37:05;32.03;;;17.80;;
49340;SDS011;35209;51.050;13.678;2024-02-28T00:42:07;25.50;;;16.60;;
49340;SDS011;35209;51.050;13.678;2024-02-28T00:47:09;34.38;;;17.35;;
49340;SDS011;35209;51.050;13.678;2024-02-28T00:52:11;29.75;;;17.00;;
49340;SDS011;35209;51.050;13.678;2024-02-28T00:57:13;28.20;;;15.70;;
49340;SDS011;35209;51.050;13.678;2024-02-28T01:02:15;28.10;;;15.75;;
49340;SDS011;35209;51.050;13.678;2024-02-28T01:07:16;21.33;;;15.90;;
49340;SDS011;35209;51.050;13.678;2024-02-28T01:12:18;27.13;;;14.55;;
49340;SDS011;35209;51.050;13.678;2024-02-28T01:17:20;25.05;;;14.75;;
49340;SDS011;35209;51.050;13.678;2024-02-28T01:22:23;29.92;;;15.25;;
49340;SDS011;35209;51.050;13.678;2024-02-28T01:27:24;29.55;;;15.60;;
49340;SDS011;35209;51.050;13.678;2024-02-28T01:32:27;29.05;;;16.17;;
49340;SDS011;35209;51.050;13.678;2024-02-28T01:37:30;31.10;;;16.67;;
49340;SDS011;35209;51.050;13.678;2024-02-28T01:42:33;32.47;;;16.45;;
49340;SDS011;35209;51.050;13.678;2024-02-28T01:47:34;34.30;;;17.17;;
49340;SDS011;35209;51.050;13.678;2024-02-28T01:52:37;33.58;;;16.55;;
49340;SDS011;35209;51.050;13.678;2024-02-28T01:57:40;38.25;;;16.60;;
49340;SDS011;35209;51.050;13.678;2024-02-28T02:02:42;40.67;;;18.08;;
49340;SDS011;35209;51.050;13.678;2024-02-28T02:07:44;53.08;;;20.25;;
49340;SDS011;35209;51.050;13.678;2024-02-28T02:12:46;44.67;;;19.30;;
49340;SDS011;35209;51.050;13.678;2024-02-28T02:17:48;47.63;;;19.70;;
49340;SDS011;35209;51.050;13.678;2024-02-28T02:22:50;55.50;;;19.95;;
49340;SDS011;35209;51.050;13.678;2024-02-28T02:27:52;41.55;;;18.70;;
49340;SDS011;35209;51.050;13.678;2024-02-28T02:32:53;36.92;;;18.10;;
49340;SDS011;35209;51.050;13.678;2024-02-28T02:37:55;47.05;;;19.10;;
49340;SDS011;35209;51.050;13.678;2024-02-28T02:42:57;37.47;;;17.13;;
49340;SDS011;35209;51.050;13.678;2024-02-28T02:47:59;45.08;;;17.90;;
49340;SDS011;35209;51.050;13.678;2024-02-28T02:53:01;34.70;;;16.30;;
49340;SDS011;35209;51.050;13.678;2024-02-28T02:58:03;37.13;;;16.45;;
49340;SDS011;35209;51.050;13.678;2024-02-28T03:03:05;31.50;;;16.88;;
49340;SDS011;35209;51.050;13.678;2024-02-28T03:08:07;26.08;;;15.02;;
49340;SDS011;35209;51.050;13.678;2024-02-28T03:13:09;33.67;;;16.27;;
49340;SDS011;35209;51.050;13.678;2024-02-28T03:18:10;24.23;;;16.02;;
49340;SDS011;35209;51.050;13.678;2024-02-28T03:23:12;25.65;;;15.00;;
49340;SDS011;35209;51.050;13.678;2024-02-28T03:28:14;25.98;;;15.43;;
49340;SDS011;35209;51.050;13.678;2024-02-28T03:33:16;39.20;;;16.48;;
49340;SDS011;35209;51.050;13.678;2024-02-28T03:38:17;34.58;;;15.63;;
49340;SDS011;35209;51.050;13.678;2024-02-28T03:43:19;27.40;;;13.95;;
49340;SDS011;35209;51.050;13.678;2024-02-28T03:48:21;26.45;;;14.90;;
49340;SDS011;35209;51.050;13.678;2024-02-28T03:53:23;30.63;;;15.23;;
49340;SDS011;35209;51.050;13.678;2024-02-28T03:58:24;29.88;;;13.43;;
49340;SDS011;35209;51.050;13.678;2024-02-28T04:03:26;29.35;;;15.30;;
49340;SDS011;35209;51.050;13.678;2024-02-28T04:08:28;29.92;;;14.57;;
49340;SDS011;35209;51.050;13.678;2024-02-28T04:13:30;27.10;;;12.88;;
49340;SDS011;35209;51.050;13.678;2024-02-28T04:18:31;23.65;;;12.18;;
49340;SDS011;35209;51.050;13.678;2024-02-28T04:23:34;32.45;;;13.10;;
49340;SDS011;35209;51.050;13.678;2024-02-28T04:28:36;24.50;;;13.10;;
49340;SDS011;35209;51.050;13.678;2024-02-28T04:33:38;23.80;;;11.85;;
49340;SDS011;35209;51.050;13.678;2024-02-28T04:38:39;35.50;;;14.20;;
49340;SDS011;35209;51.050;13.678;2024-02-28T04:43:41;34.42;;;11.45;;
49340;SDS011;35209;51.050;13.678;2024-02-28T04:48:43;27.30;;;11.25;;
49340;SDS011;35209;51.050;13.678;2024-02-28T04:53:45;23.38;;;12.77;;
49340;SDS011;35209;51.050;13.678;2024-02-28T04:58:47;29.55;;;12.30;;
49340;SDS011;35209;51.050;13.678;2024-02-28T05:03:49;26.52;;;11.55;;
49340;SDS011;35209;51.050;13.678;2024-02-28T05:08:50;26.85;;;11.68;;
49340;SDS011;35209;51.050;13.678;2024-02-28T05:13:52;18.45;;;11.30;;
49340;SDS011;35209;51.050;13.678;2024-02-28T05:18:54;22.55;;;12.10;;
49340;SDS011;35209;51.050;13.678;2024-02-28T05:23:56;20.77;;;11.35;;
49340;SDS011;35209;51.050;13.678;2024-02-28T05:28:58;26.88;;;11.90;;
49340;SDS011;35209;51.050;13.678;2024-02-28T05:34:00;22.45;;;11.93;;
49340;SDS011;35209;51.050;13.678;2024-02-28T05:39:02;32.75;;;12.98;;
49340;SDS011;35209;51.050;13.678;2024-02-28T05:44:07;31.05;;;10.82;;
49340;SDS011;35209;51.050;13.678;2024-02-28T05:49:09;37.38;;;12.07;;
49340;SDS011;35209;51.050;13.678;2024-02-28T05:54:11;28.25;;;12.73;;
49340;SDS011;35209;51.050;13.678;2024-02-28T05:59:13;31.50;;;11.10;;
49340;SDS011;35209;51.050;13.678;2024-02-28T06:04:15;21.00;;;12.13;;
49340;SDS011;35209;51.050;13.678;2024-02-28T06:09:17;22.73;;;11.73;;
49340;SDS011;35209;51.050;13.678;2024-02-28T06:14:18;25.45;;;11.57;;
49340;SDS011;35209;51.050;13.678;2024-02-28T06:19:20;24.65;;;11.82;;
49340;SDS011;35209;51.050;13.678;2024-02-28T06:24:22;27.20;;;13.27;;
49340;SDS011;35209;51.050;13.678;2024-02-28T06:29:24;28.63;;;13.32;;
49340;SDS011;35209;51.050;13.678;2024-02-28T06:34:26;29.67;;;13.07;;
49340;SDS011;35209;51.050;13.678;2024-02-28T06:39:27;31.20;;;13.85;;
49340;SDS011;35209;51.050;13.678;2024-02-28T06:44:29;35.55;;;12.98;;
49340;SDS011;35209;51.050;13.678;2024-02-28T06:49:31;42.92;;;13.38;;
49340;SDS011;35209;51.050;13.678;2024-02-28T06:54:33;24.38;;;11.70;;
49340;SDS011;35209;51.050;13.678;2024-02-28T06:59:35;34.38;;;13.30;;
49340;SDS011;35209;51.050;13.678;2024-02-28T07:04:38;27.30;;;12.77;;
49340;SDS011;35209;51.050;13.678;2024-02-28T07:09:40;21.63;;;11.35;;
49340;SDS011;35209;51.050;13.678;2024-02-28T07:14:42;20.73;;;11.00;;
49340;SDS011;35209;51.050;13.678;2024-02-28T07:19:43;24.13;;;10.70;;
49340;SDS011;35209;51.050;13.678;2024-02-28T07:24:45;17.05;;;10.55;;
49340;SDS011;35209;51.050;13.678;2024-02-28T07:29:47;24.17;;;11.68;;
49340;SDS011;35209;51.050;13.678;2024-02-28T07:34:49;19.70;;;11.90;;
49340;SDS011;35209;51.050;13.678;2024-02-28T07:39:50;23.60;;;11.98;;
49340;SDS011;35209;51.050;13.678;2024-02-28T07:44:52;21.55;;;12.02;;
49340;SDS011;35209;51.050;13.678;2024-02-28T07:49:58;27.50;;;12.68;;
49340;SDS011;35209;51.050;13.678;2024-02-28T07:55:01;27.65;;;12.82;;
49340;SDS011;35209;51.050;13.678;2024-02-28T08:00:04;29.42;;;12.93;;
49340;SDS011;35209;51.050;13.678;2024-02-28T08:05:13;22.67;;;11.02;;
49340;SDS011;35209;51.050;13.678;2024-02-28T08:10:16;25.02;;;11.70;;
49340;SDS011;35209;51.050;13.678;2024-02-28T08:15:18;20.63;;;10.88;;
49340;SDS011;35209;51.050;13.678;2024-02-28T08:20:20;22.27;;;12.80;;
49340;SDS011;35209;51.050;13.678;2024-02-28T08:25:21;30.50;;;11.32;;
49340;SDS011;35209;51.050;13.678;2024-02-28T08:30:23;20.90;;;12.25;;
49340;SDS011;35209;51.050;13.678;2024-02-28T08:35:25;23.55;;;12.15;;
49340;SDS011;35209;51.050;13.678;2024-02-28T08:40:27;23.70;;;11.43;;
49340;SDS011;35209;51.050;13.678;2024-02-28T08:45:29;25.58;;;11.75;;
49340;SDS011;35209;51.050;13.678;2024-02-28T08:50:32;22.40;;;12.05;;
49340;SDS011;35209;51.050;13.678;2024-02-28T08:55:34;22.85;;;11.50;;
49340;SDS011;35209;51.050;13.678;2024-02-28T09:00:35;22.17;;;11.35;;
49340;SDS011;35209;51.050;13.678;2024-02-28T09:05:37;26.95;;;11.88;;
49340;SDS011;35209;51.050;13.678;2024-02-28T09:10:39;21.35;;;12.32;;
49340;SDS011;35209;51.050;13.678;2024-02-28T09:15:41;27.55;;;13.05;;
49340;SDS011;35209;51.050;13.678;2024-02-28T09:20:43;29.17;;;14.13;;
49340;SDS011;35209;51.050;13.678;2024-02-28T09:25:45;34.30;;;16.00;;
49340;SDS011;35209;51.050;13.678;2024-02-28T09:30:47;37.42;;;15.20;;
49340;SDS011;35209;51.050;13.678;2024-02-28T09:35:54;33.72;;;14.07;;
49340;SDS011;35209;51.050;13.678;2024-02-28T09:40:56;28.33;;;15.98;;
49340;SDS011;35209;51.050;13.678;2024-02-28T09:45:59;34.47;;;15.60;;
49340;SDS011;35209;51.050;13.678;2024-02-28T09:56:07;44.72;;;18.45;;
49340;SDS011;35209;51.050;13.678;2024-02-28T10:01:09;46.08;;;20.48;;
49340;SDS011;35209;51.050;13.678;2024-02-28T10:06:13;33.05;;;16.95;;
49340;SDS011;35209;51.050;13.678;2024-02-28T10:11:20;32.55;;;16.58;;
49340;SDS011;35209;51.050;13.678;2024-02-28T10:16:23;25.20;;;12.57;;
49340;SDS011;35209;51.050;13.678;2024-02-28T10:21:26;34.40;;;17.40;;
49340;SDS011;35209;51.050;13.678;2024-02-28T10:26:28;27.75;;;15.60;;
49340;SDS011;35209;51.050;13.678;2024-02-28T10:31:33;23.38;;;13.90;;
49340;SDS011;35209;51.050;13.678;2024-02-28T10:36:34;27.88;;;14.57;;
49340;SDS011;35209;51.050;13.678;2024-02-28T10:41:38;23.73;;;14.85;;
49340;SDS011;35209;51.050;13.678;2024-02-28T10:46:40;24.02;;;14.15;;
49340;SDS011;35209;51.050;13.678;2024-02-28T10:51:45;18.60;;;11.35;;
49340;SDS011;35209;51.050;13.678;2024-02-28T10:56:47;18.30;;;11.63;;
49340;SDS011;35209;51.050;13.678;2024-02-28T11:01:50;19.80;;;13.10;;
49340;SDS011;35209;51.050;13.678;2024-02-28T11:06:56;23.17;;;13.13;;
49340;SDS011;35209;51.050;13.678;2024-02-28T11:11:58;22.90;;;13.55;;
49340;SDS011;35209;51.050;13.678;2024-02-28T11:17:04;26.15;;;15.18;;
49340;SDS011;35209;51.050;13.678;2024-02-28T11:22:07;20.77;;;11.98;;
49340;SDS011;35209;51.050;13.678;2024-02-28T11:27:11;22.20;;;13.23;;
49340;SDS011;35209;51.050;13.678;2024-02-28T11:32:17;73.35;;;28.85;;
49340;SDS011;35209;51.050;13.678;2024-02-28T11:37:19;16.33;;;11.75;;
49340;SDS011;35209;51.050;13.678;2024-02-28T11:42:21;17.60;;;12.05;;
49340;SDS011;35209;51.050;13.678;2024-02-28T11:47:24;20.75;;;12.85;;
49340;SDS011;35209;51.050;13.678;2024-02-28T11:52:25;19.55;;;12.88;;
49340;SDS011;35209;51.050;13.678;2024-02-28T11:57:27;29.42;;;15.50;;
49340;SDS011;35209;51.050;13.678;2024-02-28T12:02:31;20.25;;;16.45;;
49340;SDS011;35209;51.050;13.678;2024-02-28T12:07:33;16.23;;;12.07;;
49340;SDS011;35209;51.050;13.678;2024-02-28T12:12:35;15.65;;;12.00;;
49340;SDS011;35209;51.050;13.678;2024-02-28T12:17:37;27.30;;;13.63;;
49340;SDS011;35209;51.050;13.678;2024-02-28T12:22:39;20.48;;;14.35;;
49340;SDS011;35209;51.050;13.678;2024-02-28T12:27:41;25.65;;;16.70;;
49340;SDS011;35209;51.050;13.678;2024-02-28T12:32:43;29.88;;;16.58;;
49340;SDS011;35209;51.050;13.678;2024-02-28T12:37:45;26.90;;;16.13;;
49340;SDS011;35209;51.050;13.678;2024-02-28T12:42:46;28.25;;;17.27;;
49340;SDS011;35209;51.050;13.678;2024-02-28T12:47:48;30.00;;;16.52;;
49340;SDS011;35209;51.050;13.678;2024-02-28T12:52:51;31.35;;;18.48;;
49340;SDS011;35209;51.050;13.678;2024-02-28T12:57:55;22.42;;;14.73;;
49340;SDS011;35209;51.050;13.678;2024-02-28T13:02:57;17.90;;;13.82;;
49340;SDS011;35209;51.050;13.678;2024-02-28T13:07:59;22.70;;;14.32;;
49340;SDS011;35209;51.050;13.678;2024-02-28T13:13:01;26.25;;;14.73;;
49340;SDS011;35209;51.050;13.678;2024-02-28T13:18:04;16.23;;;14.52;;
49340;SDS011;35209;51.050;13.678;2024-02-28T13:23:10;22.10;;;15.50;;
49340;SDS011;35209;51.050;13.678;2024-02-28T13:28:12;18.25;;;16.30;;
49340;SDS011;35209;51.050;13.678;2024-02-28T13:33:15;21.15;;;15.30;;
49340;SDS011;35209;51.050;13.678;2024-02-28T13:38:17;19.23;;;15.45;;
49340;SDS011;35209;51.050;13.678;2024-02-28T13:43:20;23.20;;;15.30;;
49340;SDS011;35209;51.050;13.678;2024-02-28T13:48:22;17.52;;;14.85;;
49340;SDS011;35209;51.050;13.678;2024-02-28T13:53:27;18.23;;;15.48;;
49340;SDS011;35209;51.050;13.678;2024-02-28T13:58:29;19.23;;;16.02;;
49340;SDS011;35209;51.050;13.678;2024-02-28T14:03:42;17.55;;;15.68;;
49340;SDS011;35209;51.050;13.678;2024-02-28T14:08:44;18.90;;;16.98;;
49340;SDS011;35209;51.050;13.678;2024-02-28T14:13:46;18.80;;;15.25;;
49340;SDS011;35209;51.050;13.678;2024-02-28T14:18:48;18.88;;;16.33;;
49340;SDS011;35209;51.050;13.678;2024-02-28T14:23:50;22.00;;;15.80;;
49340;SDS011;35209;51.050;13.678;2024-02-28T14:28:57;16.70;;;14.98;;
49340;SDS011;35209;51.050;13.678;2024-02-28T14:33:59;18.58;;;16.48;;
49340;SDS011;35209;51.050;13.678;2024-02-28T14:39:01;19.20;;;17.30;;
49340;SDS011;35209;51.050;13.678;2024-02-28T14:44:03;18.02;;;16.15;;
49340;SDS011;35209;51.050;13.678;2024-02-28T14:49:04;18.88;;;16.58;;
49340;SDS011;35209;51.050;13.678;2024-02-28T14:54:06;17.58;;;15.85;;
49340;SDS011;35209;51.050;13.678;2024-02-28T14:59:08;17.90;;;16.10;;
49340;SDS011;35209;51.050;13.678;2024-02-28T15:04:10;19.05;;;16.88;;
49340;SDS011;35209;51.050;13.678;2024-02-28T15:09:15;27.65;;;17.50;;
49340;SDS011;35209;51.050;13.678;2024-02-28T15:14:17;19.15;;;17.08;;
49340;SDS011;35209;51.050;13.678;2024-02-28T15:19:20;21.58;;;18.17;;
49340;SDS011;35209;51.050;13.678;2024-02-28T15:24:22;27.95;;;19.23;;
49340;SDS011;35209;51.050;13.678;2024-02-28T15:29:24;20.77;;;17.30;;
49340;SDS011;35209;51.050;13.678;2024-02-28T15:34:29;20.08;;;17.98;;
49340;SDS011;35209;51.050;13.678;2024-02-28T15:39:31;20.77;;;18.20;;
49340;SDS011;35209;51.050;13.678;2024-02-28T15:44:33;20.60;;;17.40;;
49340;SDS011;35209;51.050;13.678;2024-02-28T15:49:35;22.45;;;18.70;;
49340;SDS011;35209;51.050;13.678;2024-02-28T15:54:42;20.83;;;18.63;;
49340;SDS011;35209;51.050;13.678;2024-02-28T15:59:43;19.83;;;17.55;;
49340;SDS011;35209;51.050;13.678;2024-02-28T16:04:45;18.92;;;16.92;;
49340;SDS011;35209;51.050;13.678;2024-02-28T16:09:49;20.92;;;18.77;;
49340;SDS011;35209;51.050;13.678;2024-02-28T16:14:51;20.80;;;18.73;;
49340;SDS011;35209;51.050;13.678;2024-02-28T16:19:53;22.60;;;19.55;;
49340;SDS011;35209;51.050;13.678;2024-02-28T16:24:56;20.13;;;17.63;;
49340;SDS011;35209;51.050;13.678;2024-02-28T16:29:58;29.05;;;20.63;;
49340;SDS011;35209;51.050;13.678;2024-02-28T16:35:00;22.83;;;19.00;;
49340;SDS011;35209;51.050;13.678;2024-02-28T16:40:02;24.73;;;20.83;;
49340;SDS011;35209;51.050;13.678;2024-02-28T16:45:05;22.42;;;18.50;;
49340;SDS011;35209;51.050;13.678;2024-02-28T16:50:07;22.88;;;18.52;;
49340;SDS011;35209;51.050;13.678;2024-02-28T16:55:09;21.25;;;18.48;;
49340;SDS011;35209;51.050;13.678;2024-02-28T17:00:12;26.40;;;21.20;;
49340;SDS011;35209;51.050;13.678;2024-02-28T17:05:15;41.30;;;26.85;;
49340;SDS011;35209;51.050;13.678;2024-02-28T17:10:17;54.88;;;32.53;;
49340;SDS011;35209;51.050;13.678;2024-02-28T17:15:19;43.53;;;28.27;;
49340;SDS011;35209;51.050;13.678;2024-02-28T17:20:21;39.67;;;25.73;;
49340;SDS011;35209;51.050;13.678;2024-02-28T17:25:23;28.30;;;21.98;;
49340;SDS011;35209;51.050;13.678;2024-02-28T17:30:24;24.73;;;20.83;;
49340;SDS011;35209;51.050;13.678;2024-02-28T17:35:26;37.40;;;22.73;;
49340;SDS011;35209;51.050;13.678;2024-02-28T17:40:28;34.40;;;21.77;;
49340;SDS011;35209;51.050;13.678;2024-02-28T17:45:30;36.65;;;23.80;;
49340;SDS011;35209;51.050;13.678;2024-02-28T17:50:32;33.72;;;22.60;;
49340;SDS011;35209;51.050;13.678;2024-02-28T17:55:34;35.70;;;23.15;;
49340;SDS011;35209;51.050;13.678;2024-02-28T18:00:36;36.60;;;23.13;;
49340;SDS011;35209;51.050;13.678;2024-02-28T18:05:38;42.63;;;22.92;;
49340;SDS011;35209;51.050;13.678;2024-02-28T18:10:41;40.42;;;23.75;;
49340;SDS011;35209;51.050;13.678;2024-02-28T18:15:43;29.08;;;20.38;;
49340;SDS011;35209;51.050;13.678;2024-02-28T18:20:45;46.75;;;25.17;;
49340;SDS011;35209;51.050;13.678;2024-02-28T18:25:47;61.22;;;30.38;;
49340;SDS011;35209;51.050;13.678;2024-02-28T18:30:49;63.92;;;32.90;;
49340;SDS011;35209;51.050;13.678;2024-02-28T18:35:50;43.38;;;26.23;;
49340;SDS011;35209;51.050;13.678;2024-02-28T18:40:52;41.95;;;24.25;;
49340;SDS011;35209;51.050;13.678;2024-02-28T18:45:54;48.38;;;25.45;;
49340;SDS011;35209;51.050;13.678;2024-02-28T18:50:58;39.35;;;23.73;;
49340;SDS011;35209;51.050;13.678;2024-02-28T18:55:59;47.92;;;25.42;;
49340;SDS011;35209;51.050;13.678;2024-02-28T19:01:03;40.80;;;23.42;;
49340;SDS011;35209;51.050;13.678;2024-02-28T19:06:06;38.88;;;22.80;;
49340;SDS011;35209;51.050;13.678;2024-02-28T19:11:08;37.10;;;23.45;;
49340;SDS011;35209;51.050;13.678;2024-02-28T19:16:10;50.15;;;24.58;;
49340;SDS011;35209;51.050;13.678;2024-02-28T19:21:12;38.65;;;22.73;;
49340;SDS011;35209;51.050;13.678;2024-02-28T19:26:15;42.30;;;24.38;;
49340;SDS011;35209;51.050;13.678;2024-02-28T19:31:21;47.00;;;24.27;;
49340;SDS011;35209;51.050;13.678;2024-02-28T19:36:23;52.95;;;24.88;;
49340;SDS011;35209;51.050;13.678;2024-02-28T19:41:32;39.63;;;24.02;;
49340;SDS011;35209;51.050;13.678;2024-02-28T19:46:34;39.25;;;22.60;;
49340;SDS011;35209;51.050;13.678;2024-02-28T19:51:36;51.08;;;23.02;;
49340;SDS011;35209;51.050;13.678;2024-02-28T19:56:38;43.35;;;22.10;;
49340;SDS011;35209;51.050;13.678;2024-02-28T20:01:40;38.00;;;21.95;;
49340;SDS011;35209;51.050;13.678;2024-02-28T20:06:43;38.10;;;22.48;;
49340;SDS011;35209;51.050;13.678;2024-02-28T20:11:45;43.83;;;22.50;;
49340;SDS011;35209;51.050;13.678;2024-02-28T20:16:47;44.00;;;22.90;;
49340;SDS011;35209;51.050;13.678;2024-02-28T20:21:49;44.08;;;22.45;;
49340;SDS011;35209;51.050;13.678;2024-02-28T20:26:51;41.97;;;23.23;;
49340;SDS011;35209;51.050;13.678;2024-02-28T20:31:54;38.83;;;21.15;;
49340;SDS011;35209;51.050;13.678;2024-02-28T20:36:56;35.17;;;20.42;;
49340;SDS011;35209;51.050;13.678;2024-02-28T20:42:01;43.45;;;22.02;;
49340;SDS011;35209;51.050;13.678;2024-02-28T20:47:06;41.13;;;21.60;;
49340;SDS011;35209;51.050;13.678;2024-02-28T20:52:10;39.70;;;21.60;;
49340;SDS011;35209;51.050;13.678;2024-02-28T20:57:12;45.08;;;21.77;;
49340;SDS011;35209;51.050;13.678;2024-02-28T21:02:17;49.47;;;22.85;;
49340;SDS011;35209;51.050;13.678;2024-02-28T21:07:19;36.38;;;20.42;;
49340;SDS011;35209;51.050;13.678;2024-02-28T21:12:37;45.45;;;21.00;;
49340;SDS011;35209;51.050;13.678;2024-02-28T21:17:39;39.20;;;20.23;;
49340;SDS011;35209;51.050;13.678;2024-02-28T21:22:41;40.33;;;19.30;;
49340;SDS011;35209;51.050;13.678;2024-02-28T21:27:43;40.35;;;21.00;;
49340;SDS011;35209;51.050;13.678;2024-02-28T21:32:45;36.03;;;19.83;;
49340;SDS011;35209;51.050;13.678;2024-02-28T21:37:46;37.50;;;20.20;;
49340;SDS011;35209;51.050;13.678;2024-02-28T21:42:49;47.38;;;19.58;;
49340;SDS011;35209;51.050;13.678;2024-02-28T21:47:52;35.95;;;20.42;;
49340;SDS011;35209;51.050;13.678;2024-02-28T21:52:56;32.28;;;18.15;;
49340;SDS011;35209;51.050;13.678;2024-02-28T21:57:58;33.65;;;18.63;;
49340;SDS011;35209;51.050;13.678;2024-02-28T22:03:00;28.45;;;17.90;;
49340;SDS011;35209;51.050;13.678;2024-02-28T22:08:02;35.35;;;18.38;;
49340;SDS011;35209;51.050;13.678;2024-02-28T22:13:05;32.10;;;18.55;;
49340;SDS011;35209;51.050;13.678;2024-02-28T22:18:07;29.95;;;16.85;;
49340;SDS011;35209;51.050;13.678;2024-02-28T22:23:09;24.67;;;16.98;;
49340;SDS011;35209;51.050;13.678;2024-02-28T22:28:11;34.65;;;18.73;;
49340;SDS011;35209;51.050;13.678;2024-02-28T22:33:13;32.00;;;18.40;;
49340;SDS011;35209;51.050;13.678;2024-02-28T22:38:15;25.80;;;17.20;;
49340;SDS011;35209;51.050;13.678;2024-02-28T22:43:17;36.17;;;18.08;;
49340;SDS011;35209;51.050;13.678;2024-02-28T22:48:19;29.35;;;17.88;;
49340;SDS011;35209;51.050;13.678;2024-02-28T22:53:21;34.95;;;17.60;;
49340;SDS011;35209;51.050;13.678;2024-02-28T22:58:23;30.30;;;17.63;;
49340;SDS011;35209;51.050;13.678;2024-02-28T23:03:25;39.00;;;19.00;;
49340;SDS011;35209;51.050;13.678;2024-02-28T23:08:27;29.13;;;16.65;;
49340;SDS011;35209;51.050;13.678;2024-02-28T23:13:29;26.42;;;15.40;;
49340;SDS011;35209;51.050;13.678;2024-02-28T23:18:31;28.10;;;15.88;;
49340;SDS011;35209;51.050;13.678;2024-02-28T23:23:33;29.25;;;16.35;;
49340;SDS011;35209;51.050;13.678;2024-02-28T23:28:35;25.10;;;15.18;;
49340;SDS011;35209;51.050;13.678;2024-02-28T23:33:37;28.25;;;15.88;;
49340;SDS011;35209;51.050;13.678;2024-02-28T23:38:39;23.60;;;14.57;;
49340;SDS011;35209;51.050;13.678;2024-02-28T23:43:41;22.23;;;13.45;;
49340;SDS011;35209;51.050;13.678;2024-02-28T23:48:43;16.23;;;12.20;;
49340;SDS011;35209;51.050;13.678;2024-02-28T23:53:45;16.15;;;13.45;;
49340;SDS011;35209;51.050;13.678;2024-02-28T23:58:46;20.38;;;13.07;;
